Time;durP1;ratioP1;P1;durP2;ratioP2;P2;SDS_P1;SDS_P2;PMS_P1;PMS_P2;Temp;Humidity;BMP_temperature;BMP_pressure;BME280_temperature;BME280_humidity;BME280_pressure;Samples;Min_cycle;Max_cycle;Signal;HPM_P1;HPM_P2
2022/08/27 00:00:45;;;;;;;6.30;5.10;;;;;;;27.76;52.68;100401.09;5033704;28;20054;-75
2022/08/27 00:03:13;;;;;;;5.53;5.03;;;;;;;27.77;52.74;100414.47;5033616;28;20116;-75
2022/08/27 00:05:41;;;;;;;6.22;5.15;;;;;;;27.76;52.43;100411.97;5033158;28;20057;-75
2022/08/27 00:08:11;;;;;;;5.85;5.30;;;;;;;27.76;52.86;100411.97;5034064;28;20408;-75
2022/08/27 00:10:40;;;;;;;5.47;4.95;;;;;;;27.77;52.44;100410.91;5033993;28;20046;-75
2022/08/27 00:13:07;;;;;;;5.93;4.95;;;;;;;27.77;52.49;100419.06;5033929;28;20042;-75
2022/08/27 00:15:35;;;;;;;5.50;4.80;;;;;;;27.76;52.83;100411.97;5033922;28;20045;-74
2022/08/27 00:18:04;;;;;;;5.40;4.90;;;;;;;27.77;52.76;100411.75;5033288;28;20086;-75
2022/08/27 00:20:32;;;;;;;5.40;4.90;;;;;;;27.78;52.77;100415.31;5033901;28;20049;-74
2022/08/27 00:23:00;;;;;;;6.93;5.10;;;;;;;27.77;52.36;100411.75;5034480;28;20053;-75
2022/08/27 00:25:27;;;;;;;8.40;5.75;;;;;;;27.77;52.50;100417.19;5033826;28;20042;-74
2022/08/27 00:27:54;;;;;;;5.55;5.05;;;;;;;27.76;52.50;100412.78;5033097;28;20037;-74
2022/08/27 00:30:22;;;;;;;5.43;4.93;;;;;;;27.79;52.55;100416.97;5033552;28;20045;-75
2022/08/27 00:32:50;;;;;;;5.22;4.35;;;;;;;27.76;52.52;100418.25;5032918;28;20427;-75
2022/08/27 00:35:17;;;;;;;5.53;5.03;;;;;;;27.77;52.81;100414.47;5031847;28;20072;-74
2022/08/27 00:37:45;;;;;;;5.72;5.13;;;;;;;27.77;52.38;100417.19;5031672;28;20437;-74
2022/08/27 00:40:16;;;;;;;5.55;5.03;;;;;;;27.78;52.39;100415.31;5031766;28;20146;-74
2022/08/27 00:42:44;;;;;;;6.60;5.78;;;;;;;27.77;52.39;100413.63;5033594;28;20048;-75
2022/08/27 00:45:15;;;;;;;5.50;4.93;;;;;;;27.77;52.35;100414.47;5032931;28;20058;-75
2022/08/27 00:47:48;;;;;;;7.07;5.32;;;;;;;27.78;52.76;100409.88;5033409;28;20045;-74
2022/08/27 00:50:22;;;;;;;5.97;5.28;;;;;;;27.77;52.46;100409.03;5033401;28;20109;-74
2022/08/27 00:52:56;;;;;;;5.88;5.00;;;;;;;27.77;52.69;100408.19;5033516;28;20049;-75
2022/08/27 00:55:27;;;;;;;6.22;5.28;;;;;;;27.77;52.38;100410.91;5033623;28;20052;-74
2022/08/27 00:58:13;;;;;;;5.15;4.65;;;;;;;27.78;52.36;100412.59;5032937;28;20041;-74
2022/08/27 01:00:41;;;;;;;4.90;4.45;;;;;;;27.77;52.78;100414.47;5033341;28;20369;-74
2022/08/27 01:03:08;;;;;;;5.70;5.10;;;;;;;27.78;52.68;100416.16;5032825;28;20057;-75
2022/08/27 01:05:37;;;;;;;7.60;5.90;;;;;;;27.78;52.61;100407.97;5032895;28;20105;-74
2022/08/27 01:08:13;;;;;;;5.80;5.18;;;;;;;27.78;52.49;100404.44;5034207;28;20037;-74
2022/08/27 01:10:41;;;;;;;5.82;5.22;;;;;;;27.77;52.48;100398.16;5037531;28;20049;-74
2022/08/27 01:13:10;;;;;;;5.28;4.78;;;;;;;27.77;52.75;100406.31;5036578;28;20045;-75
2022/08/27 01:15:39;;;;;;;5.53;4.80;;;;;;;27.78;52.68;100412.59;5037081;28;20472;-74
2022/08/27 01:18:08;;;;;;;5.90;4.80;;;;;;;27.78;52.67;100407.16;5036318;28;20093;-75
2022/08/27 01:20:53;;;;;;;6.13;5.53;;;;;;;27.77;52.55;100398.16;5036357;28;20049;-74
2022/08/27 01:23:35;;;;;;;5.35;4.80;;;;;;;27.78;52.41;100410.72;5036666;28;20048;-74
2022/08/27 01:26:05;;;;;;;5.65;5.13;;;;;;;27.77;52.27;100414.47;5037066;28;20049;-75
2022/08/27 01:28:34;;;;;;;8.10;4.93;;;;;;;27.78;52.47;100413.44;5036348;28;20493;-74
2022/08/27 01:31:06;;;;;;;5.30;4.80;;;;;;;27.78;52.48;100415.31;5035759;28;20053;-75
2022/08/27 01:33:34;;;;;;;6.60;5.72;;;;;;;27.78;52.36;100418.03;5037093;28;20057;-74
2022/08/27 01:36:02;;;;;;;5.78;5.28;;;;;;;27.77;52.55;100414.47;5036152;28;20049;-74
2022/08/27 01:38:30;;;;;;;6.43;5.25;;;;;;;27.79;52.31;100414.25;5036013;28;20049;-74
2022/08/27 01:40:59;;;;;;;6.55;4.97;;;;;;;27.77;52.68;100400.88;5035944;28;20050;-74
2022/08/27 01:43:28;;;;;;;5.38;4.88;;;;;;;27.78;52.33;100407.16;5036225;28;20052;-74
2022/08/27 01:45:56;;;;;;;5.97;4.55;;;;;;;27.77;52.44;100398.16;5035973;28;20056;-75
2022/08/27 01:48:23;;;;;;;6.55;5.35;;;;;;;27.79;52.47;100406.09;5036642;28;20382;-74
2022/08/27 01:50:50;;;;;;;5.55;4.97;;;;;;;27.78;52.49;100413.44;5036378;28;20049;-74
2022/08/27 01:53:21;;;;;;;6.72;5.55;;;;;;;27.78;52.44;100409.88;5036277;28;20045;-74
2022/08/27 01:55:51;;;;;;;5.80;5.30;;;;;;;27.78;52.74;100410.72;5036289;28;20412;-74
2022/08/27 01:58:23;;;;;;;6.88;4.95;;;;;;;27.78;52.72;100409.88;5036492;28;20044;-74
2022/08/27 02:00:52;;;;;;;;;;;;;;;27.77;52.68;100419.06;5036276;28;20068;-74
2022/08/27 02:03:23;;;;;;;5.78;4.72;;;;;;;27.78;52.57;100423.47;5035991;28;19928;-74
2022/08/27 02:05:51;;;;;;;5.78;5.10;;;;;;;27.78;52.32;100415.31;5035477;28;20062;-75
2022/08/27 02:08:19;;;;;;;5.50;4.88;;;;;;;27.78;52.32;100420.75;5035838;28;20041;-75
2022/08/27 02:10:47;;;;;;;5.53;5.00;;;;;;;27.77;52.65;100417.19;5035485;28;20045;-74
2022/08/27 02:13:16;;;;;;;5.72;5.13;;;;;;;27.77;52.38;100413.63;5035996;28;20504;-75
2022/08/27 02:15:44;;;;;;;5.70;5.18;;;;;;;27.78;52.42;100418.03;5035613;28;20045;-75
2022/08/27 02:18:13;;;;;;;6.60;5.20;;;;;;;27.77;52.47;100414.47;5035004;28;20045;-75
2022/08/27 02:20:42;;;;;;;5.85;5.35;;;;;;;27.77;52.53;100416.34;5035473;28;20052;-74
2022/08/27 02:23:10;;;;;;;5.75;5.20;;;;;;;27.77;52.60;100416.34;5037119;28;20057;-74
2022/08/27 02:25:38;;;;;;;5.55;5.03;;;;;;;27.76;52.75;100420.97;5035659;28;20045;-75
2022/08/27 02:28:07;;;;;;;6.28;5.68;;;;;;;27.77;52.51;100419.06;5035246;28;20038;-74
2022/08/27 02:30:35;;;;;;;5.95;5.20;;;;;;;27.76;52.77;100420.97;5035684;28;20465;-75
2022/08/27 02:33:04;;;;;;;6.40;5.38;;;;;;;27.77;52.51;100419.06;5035676;28;20057;-75
2022/08/27 02:35:37;;;;;;;6.50;5.75;;;;;;;27.76;52.50;100417.41;5035199;28;20064;-74
2022/08/27 02:38:06;;;;;;;5.53;4.68;;;;;;;27.76;52.65;100418.25;5035688;28;20042;-75
2022/08/27 02:40:36;;;;;;;5.80;5.20;;;;;;;27.76;52.58;100417.41;5035463;28;20042;-75
2022/08/27 02:43:04;;;;;;;6.60;5.47;;;;;;;27.77;52.45;100421.78;5033664;28;20489;-74
2022/08/27 02:45:31;;;;;;;6.80;5.40;;;;;;;27.77;52.55;100421.78;5035096;28;20050;-75
2022/08/27 02:48:02;;;;;;;6.93;6.07;;;;;;;27.76;52.79;100415.53;5035413;28;20041;-74
2022/08/27 02:50:29;;;;;;;6.07;5.47;;;;;;;27.76;52.48;100410.06;5034757;28;20046;-75
2022/08/27 02:52:56;;;;;;;6.38;5.70;;;;;;;27.78;52.36;100415.31;5035221;28;20042;-75
2022/08/27 02:55:24;;;;;;;6.10;5.50;;;;;;;27.77;52.77;100413.63;5034681;28;20042;-75
2022/08/27 02:57:51;;;;;;;6.47;5.88;;;;;;;27.75;52.40;100405.69;5034842;28;20052;-75
2022/08/27 03:00:22;;;;;;;6.22;5.72;;;;;;;27.75;52.73;100405.69;5035463;28;20056;-75
2022/08/27 03:02:49;;;;;;;6.18;5.65;;;;;;;27.76;52.39;100401.91;5034310;28;20052;-75
2022/08/27 03:05:17;;;;;;;5.68;5.18;;;;;;;27.77;52.47;100408.19;5034554;28;20489;-75
2022/08/27 03:07:45;;;;;;;6.68;6.05;;;;;;;27.76;52.60;100404.63;5034971;28;20045;-75
2022/08/27 03:10:14;;;;;;;6.53;5.32;;;;;;;27.76;52.52;100407.34;5034466;28;20049;-74
2022/08/27 03:12:42;;;;;;;6.40;5.82;;;;;;;27.76;52.78;100406.53;5034730;28;20052;-74
2022/08/27 03:15:15;;;;;;;7.20;5.85;;;;;;;27.75;52.74;100392.09;5034512;28;20045;-74
2022/08/27 03:20:28;;;;;;;6.97;5.60;;;;;;;27.76;52.86;100401.91;5034228;28;20104;-74
2022/08/27 03:22:56;;;;;;;6.00;5.22;;;;;;;27.75;52.87;100402.97;5034176;28;20049;-75
2022/08/27 03:25:23;;;;;;;7.45;6.45;;;;;;;27.74;52.59;100403.97;5034728;28;20477;-75
2022/08/27 03:27:51;;;;;;;6.38;5.70;;;;;;;27.74;52.68;100403.97;5034307;28;20428;-75
2022/08/27 03:30:20;;;;;;;6.45;5.82;;;;;;;27.74;52.89;100408.59;5034453;28;20049;-74
2022/08/27 03:32:48;;;;;;;6.43;5.82;;;;;;;27.75;52.91;100404.81;5033936;28;20488;-74
2022/08/27 03:35:16;;;;;;;6.63;5.88;;;;;;;27.75;52.56;100412.97;5034475;28;20048;-75
2022/08/27 03:37:43;;;;;;;6.35;5.78;;;;;;;27.74;52.79;100414.84;5033939;28;20046;-74
2022/08/27 03:40:11;;;;;;;6.00;5.43;;;;;;;27.75;52.98;100410.25;5032587;28;20046;-75
2022/08/27 03:42:41;;;;;;;7.07;6.40;;;;;;;27.74;52.93;100403.97;5034142;28;20143;-76
2022/08/27 03:45:09;;;;;;;8.40;6.07;;;;;;;27.74;53.04;100408.59;5034020;28;20052;-74
2022/08/27 03:47:37;;;;;;;8.65;6.43;;;;;;;27.74;52.95;100408.59;5034176;28;20045;-74
2022/08/27 03:50:06;;;;;;;7.28;6.57;;;;;;;27.73;52.60;100396.88;5033622;28;20037;-75
2022/08/27 03:52:35;;;;;;;7.07;5.72;;;;;;;27.73;52.92;100405.03;5033619;28;20512;-74
2022/08/27 03:55:05;;;;;;;6.82;6.20;;;;;;;27.73;52.88;100407.75;5034218;28;20046;-74
2022/08/27 03:57:32;;;;;;;6.50;5.90;;;;;;;27.73;52.80;100407.75;5034032;28;20049;-74
2022/08/27 04:00:00;;;;;;;7.07;6.05;;;;;;;27.73;52.58;100407.75;5034505;28;20042;-74
2022/08/27 04:02:27;;;;;;;8.35;6.93;;;;;;;27.74;52.99;100414.03;5033617;28;20055;-78
2022/08/27 04:04:56;;;;;;;8.07;7.18;;;;;;;27.72;52.62;100416.09;5015959;28;20057;-75
2022/08/27 04:07:23;;;;;;;7.70;6.97;;;;;;;27.69;52.78;100416.47;5033612;28;20507;-75
2022/08/27 04:09:51;;;;;;;8.43;6.68;;;;;;;27.67;52.90;100413.97;5033244;28;20042;-75
2022/08/27 04:12:18;;;;;;;7.82;7.03;;;;;;;27.66;52.77;100405.97;5033778;28;20046;-75
2022/08/27 04:14:46;;;;;;;7.80;7.00;;;;;;;27.66;53.01;100422.28;5033292;28;20064;-74
2022/08/27 04:17:13;;;;;;;8.50;7.65;;;;;;;27.63;52.75;100414.53;5032123;28;20492;-75
2022/08/27 04:19:40;;;;;;;7.13;6.43;;;;;;;27.61;52.75;100409.28;5033738;28;20037;-75
2022/08/27 04:22:08;;;;;;;7.35;6.65;;;;;;;27.61;52.93;100417.44;5033828;28;20049;-74
2022/08/27 04:24:36;;;;;;;8.48;7.57;;;;;;;27.60;52.55;100424.78;5033774;28;20491;-75
2022/08/27 04:27:05;;;;;;;9.35;7.43;;;;;;;27.58;52.56;100424.09;5034002;28;20050;-75
2022/08/27 04:29:33;;;;;;;9.13;6.95;;;;;;;27.54;52.58;100420.09;5033731;28;20093;-75
2022/08/27 04:32:00;;;;;;;8.02;7.28;;;;;;;27.53;52.73;100429.31;5033054;28;20056;-75
2022/08/27 04:34:29;;;;;;;8.02;7.22;;;;;;;27.53;52.81;100423.03;5033220;28;20046;-74
2022/08/27 04:36:56;;;;;;;10.40;7.65;;;;;;;27.52;53.07;100427.63;5033436;28;20050;-75
2022/08/27 04:39:29;;;;;;;7.80;6.88;;;;;;;27.53;52.78;100431.19;5032854;28;20485;-75
2022/08/27 04:41:58;;;;;;;7.95;7.15;;;;;;;27.53;53.05;100428.47;5033530;28;20424;-74
2022/08/27 04:44:29;;;;;;;8.55;7.70;;;;;;;27.53;52.87;100423.03;5035970;28;20042;-75
2022/08/27 04:46:59;;;;;;;8.15;6.93;;;;;;;27.54;52.71;100427.41;5037700;28;20045;-74
2022/08/27 04:49:28;;;;;;;8.20;6.97;;;;;;;27.53;52.86;100429.31;5037641;28;20048;-75
2022/08/27 04:51:58;;;;;;;8.00;7.18;;;;;;;27.52;52.43;100433.06;5036755;28;20041;-75
2022/08/27 04:54:25;;;;;;;8.48;7.53;;;;;;;27.52;52.52;100427.63;5036955;28;20046;-74
2022/08/27 04:57:01;;;;;;;7.78;7.07;;;;;;;27.52;52.42;100426.78;5037574;28;20056;-75
2022/08/27 04:59:30;;;;;;;8.65;7.85;;;;;;;27.52;52.47;100421.34;5037027;28;20041;-75
2022/08/27 05:01:58;;;;;;;8.00;7.25;;;;;;;27.51;52.80;100433.28;5037293;28;20480;-75
2022/08/27 05:04:29;;;;;;;7.70;6.85;;;;;;;27.50;52.68;100426.97;5036865;28;20053;-75
2022/08/27 05:06:56;;;;;;;11.32;7.43;;;;;;;27.51;52.92;100433.28;5036716;28;20045;-75
2022/08/27 05:09:24;;;;;;;8.77;6.90;;;;;;;27.50;52.75;100435.13;5036920;28;20064;-75
2022/08/27 05:11:54;;;;;;;8.65;7.40;;;;;;;27.51;52.87;100431.41;5037268;28;20049;-75
2022/08/27 05:14:23;;;;;;;7.03;6.38;;;;;;;27.51;52.55;100434.13;5036576;28;20049;-75
2022/08/27 05:16:50;;;;;;;8.43;7.50;;;;;;;27.52;52.59;100424.91;5037263;28;20381;-75
2022/08/27 05:19:17;;;;;;;6.80;6.20;;;;;;;27.53;52.80;100429.31;5036926;28;20044;-75
2022/08/27 05:21:48;;;;;;;7.18;6.47;;;;;;;27.53;52.50;100432.03;5036997;28;20042;-74
2022/08/27 05:24:17;;;;;;;7.78;6.20;;;;;;;27.54;52.30;100436.41;5036630;28;20484;-75
2022/08/27 05:26:45;;;;;;;7.18;6.47;;;;;;;27.54;52.52;100435.56;5036652;28;20041;-74
2022/08/27 05:29:13;;;;;;;7.65;6.95;;;;;;;27.54;52.29;100432.84;5037153;28;20045;-75
2022/08/27 05:31:41;;;;;;;7.40;6.55;;;;;;;27.54;52.18;100439.13;5035671;28;20060;-75
2022/08/27 05:34:10;;;;;;;7.57;6.80;;;;;;;27.54;51.96;100430.13;5035231;28;20042;-76
2022/08/27 05:36:48;;;;;;;7.15;6.43;;;;;;;27.54;52.30;100430.13;5037075;28;20495;-75
2022/08/27 05:39:16;;;;;;;7.55;6.72;;;;;;;27.54;52.04;100435.56;5035993;28;20049;-75
2022/08/27 05:41:43;;;;;;;6.97;6.35;;;;;;;27.54;52.17;100430.13;5036882;28;20053;-75
2022/08/27 05:44:11;;;;;;;7.32;6.63;;;;;;;27.55;52.08;100429.13;5036512;28;20396;-75
2022/08/27 05:46:58;;;;;;;7.78;6.95;;;;;;;27.57;52.52;100427.03;5036390;28;20045;-75
2022/08/27 05:49:25;;;;;;;8.55;6.40;;;;;;;27.57;52.45;100432.47;5035914;28;20045;-75
2022/08/27 05:51:53;;;;;;;7.53;6.40;;;;;;;27.56;52.20;100431.63;5036503;28;20052;-75
2022/08/27 05:54:20;;;;;;;7.68;6.65;;;;;;;27.57;52.40;100424.31;5035557;28;20048;-75
2022/08/27 05:56:48;;;;;;;9.45;6.68;;;;;;;27.57;52.64;100427.88;5036539;28;20052;-76
2022/08/27 06:02:04;;;;;;;7.78;6.45;;;;;;;27.56;52.30;100428.91;5036211;28;20431;-75
2022/08/27 06:04:32;;;;;;;8.10;6.97;;;;;;;27.54;52.49;100430.13;5036387;28;20053;-75
2022/08/27 06:06:59;;;;;;;7.82;6.65;;;;;;;27.52;52.39;100427.63;5034598;28;20053;-75
2022/08/27 06:09:28;;;;;;;8.00;6.93;;;;;;;27.50;52.43;100432.41;5036387;28;20037;-75
2022/08/27 06:11:58;;;;;;;6.72;6.13;;;;;;;27.52;52.45;100433.06;5035617;28;20049;-76
2022/08/27 06:14:26;;;;;;;6.60;5.90;;;;;;;27.52;52.56;100435.78;5036187;28;20046;-80
2022/08/27 06:16:55;;;;;;;8.40;6.53;;;;;;;27.53;52.88;100432.03;5035338;28;20053;-76
2022/08/27 06:19:22;;;;;;;10.90;7.45;;;;;;;27.54;52.96;100432.84;5035315;28;20041;-75
2022/08/27 06:21:50;;;;;;;7.18;5.93;;;;;;;27.54;53.03;100436.41;5035586;28;20045;-75
2022/08/27 06:24:38;;;;;;;7.47;6.78;;;;;;;27.54;52.80;100441.03;5036055;28;20049;-74
2022/08/27 06:27:08;;;;;;;9.10;6.63;;;;;;;27.56;53.06;100437.06;5035034;28;20404;-75
2022/08/27 06:29:36;;;;;;;6.57;5.97;;;;;;;27.58;53.36;100445.03;5035995;28;20045;-75
2022/08/27 06:32:04;;;;;;;8.38;6.43;;;;;;;27.56;53.29;100439.78;5035148;28;20052;-75
2022/08/27 06:34:32;;;;;;;7.07;6.20;;;;;;;27.56;53.32;100445.22;5035499;28;20064;-75
2022/08/27 06:37:00;;;;;;;8.45;7.55;;;;;;;27.56;53.71;100439.78;5035491;28;20045;-75
2022/08/27 06:39:27;;;;;;;7.25;6.55;;;;;;;27.54;53.61;100439.13;5035354;28;20369;-75
2022/08/27 06:41:57;;;;;;;10.52;6.90;;;;;;;27.52;53.70;100441.22;5035622;28;20041;-76
2022/08/27 06:44:25;;;;;;;8.50;6.97;;;;;;;27.51;53.48;100439.56;5033578;28;20049;-75
2022/08/27 06:46:53;;;;;;;7.22;6.53;;;;;;;27.49;53.38;100438.88;5034726;28;20476;-75
2022/08/27 06:49:20;;;;;;;7.25;6.28;;;;;;;27.46;52.94;100442.00;5035364;28;20488;-75
2022/08/27 06:51:48;;;;;;;7.78;6.97;;;;;;;27.44;52.41;100444.06;5034924;28;20052;-75
2022/08/27 06:54:17;;;;;;;7.75;6.43;;;;;;;27.40;52.98;100439.22;5034735;28;20049;-76
2022/08/27 06:56:44;;;;;;;6.75;6.03;;;;;;;27.37;52.68;100445.88;5034958;28;20068;-75
2022/08/27 06:59:14;;;;;;;7.90;5.82;;;;;;;27.34;52.70;100447.09;5035099;28;20053;-75
2022/08/27 07:01:45;;;;;;;6.47;5.88;;;;;;;27.32;52.28;100446.47;5035358;28;20049;-75
2022/08/27 07:04:18;;;;;;;9.05;5.95;;;;;;;27.31;52.55;100446.69;5035049;28;20057;-75
2022/08/27 07:06:45;;;;;;;;;;;;;;;27.28;52.31;100452.50;5034702;28;20049;-75
2022/08/27 07:09:13;;;;;;;8.93;5.85;;;;;;;27.26;52.27;100454.53;5034916;28;20280;-75
2022/08/27 07:11:40;;;;;;;7.57;5.75;;;;;;;27.22;52.16;100455.97;5034315;28;20044;-75
2022/08/27 07:14:08;;;;;;;8.85;6.88;;;;;;;27.21;52.19;100457.00;5034492;28;20056;-75
2022/08/27 07:16:36;;;;;;;7.53;5.63;;;;;;;27.19;52.19;100454.50;5034471;28;20389;-75
2022/08/27 07:19:07;;;;;;;7.53;5.00;;;;;;;27.19;52.15;100453.66;5034354;28;20056;-76
2022/08/27 07:21:35;;;;;;;10.52;5.55;;;;;;;27.19;52.19;100457.22;5034489;28;20046;-76
2022/08/27 07:24:04;;;;;;;6.57;5.20;;;;;;;27.21;52.39;100452.41;5034703;28;20060;-76
2022/08/27 07:26:35;;;;;;;7.90;5.55;;;;;;;27.22;52.61;100450.53;5033310;28;20049;-76
2022/08/27 07:29:08;;;;;;;8.57;6.50;;;;;;;27.24;52.37;100456.63;5034331;28;20520;-76
2022/08/27 07:31:37;;;;;;;9.25;6.05;;;;;;;27.24;52.70;100454.75;5032964;28;20049;-76
2022/08/27 07:34:05;;;;;;;8.23;5.78;;;;;;;27.25;52.72;100455.59;5034705;28;20052;-76
2022/08/27 07:36:33;;;;;;;7.35;6.00;;;;;;;27.25;52.77;100453.72;5034635;28;20056;-76
2022/08/27 07:39:01;;;;;;;6.40;5.55;;;;;;;27.27;53.19;100450.81;5034336;28;20072;-76
2022/08/27 07:41:29;;;;;;;6.45;5.80;;;;;;;27.28;53.06;100455.22;5034182;28;20045;-76
2022/08/27 07:46:46;;;;;;;5.53;5.03;;;;;;;27.29;52.58;100456.88;5034300;28;20046;-76
2022/08/27 07:49:16;;;;;;;10.18;5.18;;;;;;;27.29;52.76;100451.44;5034196;28;20053;-77
2022/08/27 07:51:44;;;;;;;7.40;5.82;;;;;;;27.30;53.14;100464.84;5034140;28;20045;-76
2022/08/27 07:54:12;;;;;;;7.05;5.20;;;;;;;27.32;53.07;100456.50;5033548;28;20041;-76
2022/08/27 07:56:40;;;;;;;5.38;4.88;;;;;;;27.32;52.58;100461.94;5033906;28;20461;-76
2022/08/27 07:59:08;;;;;;;6.63;5.00;;;;;;;27.33;52.98;100459.03;5034260;28;20052;-76
2022/08/27 08:01:37;;;;;;;6.88;5.68;;;;;;;27.34;52.98;100463.41;5034271;28;20041;-76
2022/08/27 08:04:05;;;;;;;7.13;5.65;;;;;;;27.36;53.15;100465.97;5033682;28;20053;-76
2022/08/27 08:06:37;;;;;;;6.82;5.28;;;;;;;27.37;52.70;100462.19;5033874;28;20053;-76
2022/08/27 08:09:08;;;;;;;6.22;5.60;;;;;;;27.39;52.84;100470.13;5033278;28;20053;-76
2022/08/27 08:11:38;;;;;;;5.90;5.35;;;;;;;27.38;52.86;100472.03;5034409;28;20131;-76
2022/08/27 08:14:08;;;;;;;7.65;5.88;;;;;;;27.38;52.45;100469.31;5033130;28;20045;-76
2022/08/27 08:16:35;;;;;;;6.55;5.28;;;;;;;27.38;52.89;100465.75;5034216;28;20049;-76
2022/08/27 08:19:03;;;;;;;6.80;5.60;;;;;;;27.38;52.70;100465.75;5034125;28;20049;-76
2022/08/27 08:21:30;;;;;;;8.05;5.72;;;;;;;27.39;52.94;100464.72;5033966;28;20049;-76
2022/08/27 08:23:58;;;;;;;7.15;5.30;;;;;;;27.39;53.01;100470.13;5034208;28;20061;-76
2022/08/27 08:26:26;;;;;;;7.35;5.50;;;;;;;27.39;52.92;100473.72;5034055;28;20046;-76
2022/08/27 08:28:54;;;;;;;9.43;5.57;;;;;;;27.41;53.12;100476.25;5034202;28;20381;-75
2022/08/27 08:31:22;;;;;;;7.70;5.30;;;;;;;27.40;53.02;100472.69;5035740;28;20046;-75
2022/08/27 08:33:51;;;;;;;6.68;5.53;;;;;;;27.41;53.41;100471.66;5034904;28;20050;-76
2022/08/27 08:36:20;;;;;;;7.10;6.28;;;;;;;27.42;53.18;100476.03;5034459;28;20049;-75
2022/08/27 08:38:49;;;;;;;8.95;6.13;;;;;;;27.42;53.38;100473.31;5035083;28;20053;-75
2022/08/27 08:41:42;;;;;;;7.07;5.82;;;;;;;27.43;53.38;100477.75;5033015;28;20409;-76
2022/08/27 08:44:24;;;;;;;7.38;5.57;;;;;;;27.44;53.46;100479.41;5033821;28;20049;-76
2022/08/27 08:46:58;;;;;;;6.50;5.80;;;;;;;27.44;52.97;100470.44;5034201;28;20057;-76
2022/08/27 08:49:48;;;;;;;6.05;5.45;;;;;;;27.45;52.93;100486.53;5033794;28;20045;-75
2022/08/27 08:52:34;;;;;;;8.23;6.22;;;;;;;27.46;53.36;100492.81;5031272;28;20056;-75
2022/08/27 08:55:13;;;;;;;6.22;5.40;;;;;;;27.47;53.03;100495.34;5033580;28;20049;-75
2022/08/27 08:57:59;;;;;;;8.63;5.75;;;;;;;27.48;53.29;100497.03;5033469;28;20052;-74
2022/08/27 09:00:27;;;;;;;10.43;6.28;;;;;;;27.48;53.06;100507.91;5032928;28;20045;-77
2022/08/27 09:02:54;;;;;;;7.82;6.25;;;;;;;27.49;53.10;100503.31;5033619;28;20049;-76
2022/08/27 09:05:24;;;;;;;7.88;6.25;;;;;;;27.48;52.99;100497.03;5033028;28;20049;-76
2022/08/27 09:08:18;;;;;;;8.95;6.22;;;;;;;27.50;53.05;100502.25;5033074;28;20060;-78
2022/08/27 09:11:07;;;;;;;8.70;5.97;;;;;;;27.51;53.62;100499.38;5032944;28;20048;-75
2022/08/27 09:13:40;;;;;;;7.55;5.72;;;;;;;27.52;53.63;100497.47;5015164;28;20060;-75
2022/08/27 09:16:08;;;;;;;8.00;5.78;;;;;;;27.52;54.02;100503.75;5032948;28;20373;-75
2022/08/27 09:18:39;;;;;;;7.55;6.78;;;;;;;27.53;53.98;100494.56;5033120;28;20378;-76
2022/08/27 09:21:22;;;;;;;7.95;6.50;;;;;;;27.54;53.90;100496.22;5033005;28;20052;-75
2022/08/27 09:24:00;;;;;;;9.48;7.07;;;;;;;27.55;54.16;100503.38;5032793;28;20050;-78
2022/08/27 09:26:31;;;;;;;10.15;8.85;;;;;;;27.57;54.29;100511.34;5032584;28;20386;-75
2022/08/27 09:29:15;;;;;;;10.30;9.18;;;;;;;27.56;54.66;100513.22;5033262;28;20052;-75
2022/08/27 09:31:52;;;;;;;7.68;6.90;;;;;;;27.59;54.55;100521.00;5037376;28;20515;-75
2022/08/27 09:34:20;;;;;;;8.10;6.93;;;;;;;27.66;54.69;100514.75;5037397;28;20049;-72
2022/08/27 09:36:50;;;;;;;8.43;7.43;;;;;;;27.68;54.16;100523.59;5036890;28;20377;-73
2022/08/27 09:39:17;;;;;;;7.22;6.53;;;;;;;27.69;53.92;100519.81;5019782;28;20566;-72
2022/08/27 09:41:47;;;;;;;8.77;7.47;;;;;;;27.69;53.95;100522.53;5035877;28;20037;-72
2022/08/27 09:44:21;;;;;;;9.00;6.70;;;;;;;27.69;53.32;100522.53;5034630;28;20048;-72
2022/08/27 09:46:58;;;;;;;8.18;6.30;;;;;;;27.70;53.50;100532.38;5036358;28;20041;-75
2022/08/27 09:49:25;;;;;;;7.88;7.13;;;;;;;27.69;53.30;100525.25;5036435;28;20056;-74
2022/08/27 09:51:54;;;;;;;8.77;7.90;;;;;;;27.69;53.29;100520.66;5036112;28;20473;-73
2022/08/27 09:54:45;;;;;;;12.18;7.85;;;;;;;27.69;53.67;100534.25;5036094;28;20048;-74
2022/08/27 09:57:29;;;;;;;8.45;7.65;;;;;;;27.68;53.02;100529.03;5036408;28;20060;-73
2022/08/27 09:59:57;;;;;;;12.05;7.93;;;;;;;27.68;53.82;100524.41;5035693;28;20049;-73
2022/08/27 10:02:25;;;;;;;11.20;7.95;;;;;;;27.68;54.20;100529.03;5035982;28;20057;-73
2022/08/27 10:04:57;;;;;;;16.02;10.13;;;;;;;27.69;55.20;100531.53;5036089;28;20053;-73
2022/08/27 10:08:02;;;;;;;13.10;10.73;;;;;;;27.68;56.35;100531.75;5034908;28;20049;-72
2022/08/27 10:10:47;;;;;;;20.75;11.88;;;;;;;27.66;56.09;100525.63;5013850;28;20062;-72
2022/08/27 10:13:19;;;;;;;13.15;10.65;;;;;;;27.65;56.38;100545.72;4992876;28;20518;-72
2022/08/27 10:16:13;;;;;;;10.73;9.30;;;;;;;27.63;55.23;100564.09;4970608;28;20054;-72
2022/08/27 10:19:04;;;;;;;10.27;7.78;;;;;;;27.61;54.20;100550.69;4994057;28;20054;-78
2022/08/27 10:21:45;;;;;;;8.05;7.00;;;;;;;27.60;54.32;100555.31;4935153;29;20059;-73
2022/08/27 10:24:15;;;;;;;13.23;8.85;;;;;;;27.59;53.60;100552.78;4916364;29;20071;-73
2022/08/27 10:27:08;;;;;;;12.20;9.00;;;;;;;27.57;53.10;100552.97;4929435;29;20432;-73
2022/08/27 10:29:44;;;;;;;;;;;;;;;27.54;53.29;100547.91;4933030;29;20472;-73
2022/08/27 10:32:49;;;;;;;12.38;9.27;;;;;;;27.54;53.45;100539.75;4952859;29;20371;-72
2022/08/27 10:35:27;;;;;;;9.68;8.65;;;;;;;27.53;53.55;100542.66;4945533;29;20121;-73
2022/08/27 10:38:24;;;;;;;11.73;9.45;;;;;;;27.50;53.96;100552.03;4935749;29;20055;-73
2022/08/27 10:41:00;;;;;;;14.15;10.20;;;;;;;27.50;53.66;100553.91;4927001;29;20506;-74
2022/08/27 10:43:49;;;;;;;13.77;10.32;;;;;;;27.48;53.91;100575.88;4935503;29;20074;-73
2022/08/27 10:46:37;;;;;;;11.25;9.63;;;;;;;27.48;53.76;100585.91;4946317;29;20495;-72
2022/08/27 10:49:22;;;;;;;14.15;9.68;;;;;;;27.47;54.35;100589.66;4954615;29;20055;-73
2022/08/27 10:52:23;;;;;;;12.73;10.52;;;;;;;27.45;54.38;100589.84;4954958;29;20511;-73
2022/08/27 10:55:20;;;;;;;12.40;10.57;;;;;;;27.43;54.19;100575.63;4954918;29;20051;-72
2022/08/27 10:58:09;;;;;;;16.73;11.63;;;;;;;27.42;53.72;100565.75;4961377;28;20055;-72
2022/08/27 11:00:54;;;;;;;12.98;9.68;;;;;;;27.41;53.68;100566.78;4995542;28;20515;-72
2022/08/27 11:03:32;;;;;;;11.45;8.65;;;;;;;27.40;53.74;100594.19;4995195;28;20505;-72
2022/08/27 11:06:14;;;;;;;6.38;5.72;;;;;;;27.37;53.82;100606.28;4995708;28;20050;-72
2022/08/27 11:08:50;;;;;;;8.65;5.40;;;;;;;27.35;53.04;100611.91;4995030;28;20061;-72
2022/08/27 11:11:43;;;;;;;6.70;3.65;;;;;;;27.32;50.30;100593.25;4993237;28;20054;-72
2022/08/27 11:14:55;;;;;;;6.30;3.58;;;;;;;27.29;49.02;100600.94;5007477;28;20053;-72
2022/08/27 11:17:29;;;;;;;;;;;;;;;27.25;47.51;100589.59;5015300;28;20057;-72
2022/08/27 11:20:13;;;;;;;3.20;2.28;;;;;;;27.25;47.49;100588.75;5012926;28;20301;-73
2022/08/27 11:22:46;;;;;;;;;;;;;;;27.22;47.64;100598.13;5006773;28;20039;-72
2022/08/27 11:25:20;;;;;;;3.97;2.22;;;;;;;27.22;47.54;100605.44;5006405;28;19929;-72
2022/08/27 11:27:50;;;;;;;4.80;2.33;;;;;;;27.21;47.60;100590.19;5014121;28;20041;-72
2022/08/27 11:30:45;;;;;;;5.88;2.35;;;;;;;27.18;47.49;100588.66;5014260;28;20049;-72
2022/08/27 11:33:34;;;;;;;3.75;1.80;;;;;;;27.17;47.62;100597.84;5014006;28;20473;-72
2022/08/27 11:36:07;;;;;;;5.72;2.53;;;;;;;27.17;48.15;100595.16;5014245;28;20046;-74
2022/08/27 11:38:52;;;;;;;4.40;2.08;;;;;;;27.18;48.10;100601.41;5012552;28;20054;-73
2022/08/27 11:41:38;;;;;;;6.38;2.25;;;;;;;27.19;48.40;100612.13;5014590;28;20072;-73
2022/08/27 11:44:14;;;;;;;3.83;2.28;;;;;;;27.20;48.73;100635.53;4994173;28;20050;-72
2022/08/27 11:46:47;;;;;;;3.55;2.65;;;;;;;27.21;49.08;100648.09;4994286;28;20049;-72
2022/08/27 11:49:28;;;;;;;3.53;2.13;;;;;;;27.22;49.50;100666.06;4994037;28;20046;-73
2022/08/27 11:51:59;;;;;;;7.00;3.30;;;;;;;27.19;49.74;100666.47;4993200;28;20050;-74
2022/08/27 11:54:41;;;;;;;4.70;3.08;;;;;;;27.22;50.14;100676.09;4992696;28;20060;-72